Time;durP1;ratioP1;P1;durP2;ratioP2;P2;SDS_P1;SDS_P2;PMS_P1;PMS_P2;Temp;Humidity;BMP_temperature;BMP_pressure;BME280_temperature;BME280_humidity;BME280_pressure;Samples;Min_cycle;Max_cycle;Signal;HPM_P1;HPM_P2
2022/10/29 00:01:38;;;;;;;6.78;3.30;;;;;;;;;;5067870;28;20555;-84
2022/10/29 00:04:06;;;;;;;7.05;3.10;;;;;;;;;;5044922;28;20036;-84
2022/10/29 00:06:31;;;;;;;8.20;3.38;;;;;;;;;;5045284;28;20539;-84
2022/10/29 00:08:57;;;;;;;5.95;3.20;;;;;;;;;;5045053;28;20131;-84
2022/10/29 00:11:22;;;;;;;7.18;3.65;;;;;;;;;;5078074;28;20044;-84
2022/10/29 00:13:52;;;;;;;8.07;3.58;;;;;;;;;;5047290;28;20375;-84
2022/10/29 00:16:20;;;;;;;8.77;3.03;;;;;;;;;;5092705;28;20047;-84
2022/10/29 00:18:45;;;;;;;;;;;;;;;;;;5048801;28;20055;-84
2022/10/29 00:21:16;;;;;;;7.88;3.53;;;;;;;;;;5076686;28;19974;-84
2022/10/29 00:23:42;;;;;;;6.68;3.03;;;;;;;;;;5058108;28;20093;-84
2022/10/29 00:26:07;;;;;;;5.70;3.28;;;;;;;;;;5076623;28;20036;-84
2022/10/29 00:28:35;;;;;;;8.10;3.28;;;;;;;;;;5044424;28;20079;-84
2022/10/29 00:31:03;;;;;;;7.28;3.60;;;;;;;;;;5067633;28;20517;-82
2022/10/29 00:33:28;;;;;;;6.75;3.60;;;;;;;;;;5059032;28;20040;-82
2022/10/29 00:35:58;;;;;;;6.00;3.25;;;;;;;;;;5078929;28;20486;-84
2022/10/29 00:38:24;;;;;;;7.30;3.25;;;;;;;;;;5051073;28;20060;-83
2022/10/29 00:40:49;;;;;;;7.00;3.35;;;;;;;;;;5043447;28;20127;-83
2022/10/29 00:43:16;;;;;;;7.38;3.15;;;;;;;;;;5043789;28;20044;-83
2022/10/29 00:45:46;;;;;;;6.43;3.53;;;;;;;;;;5075288;28;20032;-83
2022/10/29 00:48:11;;;;;;;7.10;3.60;;;;;;;;;;5046976;28;20572;-84
2022/10/29 00:50:37;;;;;;;9.52;3.20;;;;;;;;;;5081867;28;20040;-83
2022/10/29 00:53:02;;;;;;;7.10;3.15;;;;;;;;;;5076297;28;20517;-83
2022/10/29 00:55:27;;;;;;;8.70;3.80;;;;;;;;;;5050006;28;20036;-83
2022/10/29 00:57:54;;;;;;;10.95;3.28;;;;;;;;;;5078028;28;20120;-84
2022/10/29 01:00:20;;;;;;;7.82;3.33;;;;;;;;;;5042927;28;20120;-83
2022/10/29 01:02:45;;;;;;;11.07;3.70;;;;;;;;;;5055692;28;20074;-83
2022/10/29 01:05:12;;;;;;;6.82;3.50;;;;;;;;;;5061473;28;20544;-83
2022/10/29 01:07:38;;;;;;;5.93;2.85;;;;;;;;;;5041800;28;20036;-83
2022/10/29 01:10:04;;;;;;;6.45;3.28;;;;;;;;;;5057538;28;22923;-83
2022/10/29 01:12:54;;;;;;;8.57;3.15;;;;;;;;;;5055562;28;20531;-83
2022/10/29 01:15:33;;;;;;;6.97;3.22;;;;;;;;;;5075679;28;20410;-83
2022/10/29 01:18:09;;;;;;;10.68;3.95;;;;;;;;;;5075525;28;20051;-84
2022/10/29 01:20:35;;;;;;;6.00;3.20;;;;;;;;;;5065566;28;20036;-83
2022/10/29 01:23:12;;;;;;;9.48;3.00;;;;;;;;;;5058542;28;20032;-84
2022/10/29 01:26:04;;;;;;;13.80;3.45;;;;;;;;;;5058742;28;20482;-83
2022/10/29 01:29:11;;;;;;;8.43;3.45;;;;;;;;;;5076158;28;20036;-83
2022/10/29 01:31:42;;;;;;;6.95;3.17;;;;;;;;;;5055450;28;20037;-83
2022/10/29 01:34:22;;;;;;;8.43;3.05;;;;;;;;;;5074388;28;20491;-83
2022/10/29 01:36:50;;;;;;;7.65;3.47;;;;;;;;;;5073177;28;20514;-83
2022/10/29 01:39:37;;;;;;;7.13;3.15;;;;;;;;;;5071230;28;20076;-83
2022/10/29 01:42:38;;;;;;;9.82;2.92;;;;;;;;;;5060221;28;20665;-84
2022/10/29 01:45:16;;;;;;;6.22;2.85;;;;;;;;;;5024857;28;20526;-84
2022/10/29 01:47:46;;;;;;;9.52;3.55;;;;;;;;;;5056185;28;20109;-84
2022/10/29 01:50:16;;;;;;;7.72;3.20;;;;;;;;;;5041940;28;20501;-84
2022/10/29 01:52:41;;;;;;;10.52;3.78;;;;;;;;;;5074076;28;20407;-84
2022/10/29 01:55:07;;;;;;;9.15;3.65;;;;;;;;;;5059129;28;20036;-83
2022/10/29 01:57:37;;;;;;;8.80;3.28;;;;;;;;;;5075874;28;20131;-83
2022/10/29 02:00:08;;;;;;;7.43;3.20;;;;;;;;;;5057479;28;20040;-83
2022/10/29 02:02:50;;;;;;;7.85;2.97;;;;;;;;;;5040017;28;20032;-84
2022/10/29 02:05:36;;;;;;;8.65;2.92;;;;;;;;;;5059121;28;20045;-83
2022/10/29 02:08:20;;;;;;;8.25;2.55;;;;;;;;;;5062091;28;20098;-83
2022/10/29 02:11:14;;;;;;;6.72;3.08;;;;;;;;;;5065357;28;20040;-83
2022/10/29 02:13:45;;;;;;;7.60;3.47;;;;;;;;;;5051249;28;20127;-83
2022/10/29 02:16:10;;;;;;;7.75;3.58;;;;;;;;;;5059666;28;20043;-83
2022/10/29 02:18:43;;;;;;;8.57;3.60;;;;;;;;;;5042215;28;20554;-83
2022/10/29 02:21:09;;;;;;;7.45;3.42;;;;;;;;;;5056413;28;20059;-84
2022/10/29 02:23:34;;;;;;;8.65;2.85;;;;;;;;;;5039555;28;20040;-83
2022/10/29 02:26:00;;;;;;;4.85;3.00;;;;;;;;;;5031843;28;20419;-83
2022/10/29 02:28:25;;;;;;;7.60;3.63;;;;;;;;;;5043632;28;20583;-83
2022/10/29 02:30:53;;;;;;;5.35;3.05;;;;;;;;;;5040041;28;20490;-85
2022/10/29 02:33:18;;;;;;;10.27;3.45;;;;;;;;;;5043150;28;20491;-84
2022/10/29 02:35:44;;;;;;;7.38;3.67;;;;;;;;;;5042794;28;20086;-83
2022/10/29 02:38:12;;;;;;;9.63;3.28;;;;;;;;;;5075986;28;20063;-83
2022/10/29 02:40:37;;;;;;;7.50;3.40;;;;;;;;;;5041720;28;20037;-84
2022/10/29 02:43:02;;;;;;;7.85;3.33;;;;;;;;;;5042897;28;20085;-84
2022/10/29 02:45:28;;;;;;;6.75;3.03;;;;;;;;;;5047004;28;20596;-84
2022/10/29 02:47:53;;;;;;;8.45;3.53;;;;;;;;;;5058155;28;20035;-84
2022/10/29 02:50:18;;;;;;;7.05;3.28;;;;;;;;;;5054666;28;20041;-83
2022/10/29 02:52:44;;;;;;;8.40;3.45;;;;;;;;;;5044158;28;20040;-84
2022/10/29 02:55:09;;;;;;;10.00;3.10;;;;;;;;;;5087542;28;20041;-83
2022/10/29 02:57:34;;;;;;;8.77;3.95;;;;;;;;;;5075528;28;20443;-84
2022/10/29 03:00:00;;;;;;;11.25;3.47;;;;;;;;;;5073735;28;20548;-84
2022/10/29 03:02:25;;;;;;;8.18;3.33;;;;;;;;;;5087782;28;20035;-84
2022/10/29 03:04:56;;;;;;;7.38;3.15;;;;;;;;;;5054268;28;20496;-84
2022/10/29 03:07:21;;;;;;;7.85;3.35;;;;;;;;;;5040809;28;20052;-83
2022/10/29 03:09:46;;;;;;;11.00;3.42;;;;;;;;;;5074205;28;20037;-83
2022/10/29 03:12:12;;;;;;;9.57;3.42;;;;;;;;;;5055649;28;20040;-83
2022/10/29 03:14:37;;;;;;;8.98;3.60;;;;;;;;;;5040369;28;20483;-83
2022/10/29 03:17:02;;;;;;;8.48;3.60;;;;;;;;;;5041136;28;20025;-83
2022/10/29 03:19:28;;;;;;;6.95;3.30;;;;;;;;;;5088925;28;20037;-83
2022/10/29 03:21:53;;;;;;;8.27;3.38;;;;;;;;;;5047321;28;20028;-84
2022/10/29 03:24:18;;;;;;;12.02;3.90;;;;;;;;;;5088492;28;20045;-83
2022/10/29 03:26:44;;;;;;;7.75;3.50;;;;;;;;;;5054080;28;20032;-83
2022/10/29 03:29:09;;;;;;;10.98;4.10;;;;;;;;;;5048802;28;20116;-83
2022/10/29 03:31:34;;;;;;;6.97;3.53;;;;;;;;;;5041226;28;20040;-83
2022/10/29 03:34:00;;;;;;;8.43;3.28;;;;;;;;;;5042855;28;20090;-83
2022/10/29 03:36:25;;;;;;;6.38;3.05;;;;;;;;;;5048126;28;20036;-83
2022/10/29 03:38:50;;;;;;;9.85;4.18;;;;;;;;;;5040614;28;20060;-83
2022/10/29 03:41:16;;;;;;;7.97;3.88;;;;;;;;;;5053954;28;20484;-83
2022/10/29 03:43:41;;;;;;;8.07;4.10;;;;;;;;;;5090478;28;20039;-83
2022/10/29 03:46:06;;;;;;;10.13;3.75;;;;;;;;;;5069911;28;20364;-83
2022/10/29 03:48:33;;;;;;;11.80;3.53;;;;;;;;;;5041309;28;20247;-83
2022/10/29 03:51:04;;;;;;;9.15;3.40;;;;;;;;;;5055310;28;20499;-83
2022/10/29 03:53:30;;;;;;;7.38;3.58;;;;;;;;;;5051903;28;20071;-83
2022/10/29 03:55:56;;;;;;;9.65;4.05;;;;;;;;;;5043913;28;20177;-82
2022/10/29 03:58:22;;;;;;;7.97;3.75;;;;;;;;;;5061373;28;20052;-83
2022/10/29 04:00:59;;;;;;;9.68;4.03;;;;;;;;;;5057710;28;20119;-84
2022/10/29 04:03:26;;;;;;;8.50;3.58;;;;;;;;;;5059709;28;20112;-84
2022/10/29 04:05:52;;;;;;;8.95;3.80;;;;;;;;;;5092503;28;20032;-84
2022/10/29 04:08:18;;;;;;;11.90;4.07;;;;;;;;;;5046190;28;20044;-83
2022/10/29 04:10:48;;;;;;;10.38;3.47;;;;;;;;;;5043987;28;20051;-83
2022/10/29 04:13:14;;;;;;;7.50;4.00;;;;;;;;;;5046979;28;20040;-83
2022/10/29 04:15:40;;;;;;;9.77;3.70;;;;;;;;;;5042854;28;20032;-83
2022/10/29 04:18:06;;;;;;;10.15;4.35;;;;;;;;;;5085425;28;20028;-83
2022/10/29 04:20:31;;;;;;;7.88;3.30;;;;;;;;;;5057932;28;20030;-84
2022/10/29 04:22:56;;;;;;;9.65;3.53;;;;;;;;;;5052360;28;20122;-84
2022/10/29 04:25:22;;;;;;;7.82;4.15;;;;;;;;;;5042260;28;20060;-83
2022/10/29 04:27:47;;;;;;;10.88;3.80;;;;;;;;;;5041565;28;20028;-83
2022/10/29 04:30:15;;;;;;;10.57;4.65;;;;;;;;;;5076126;28;20128;-83
2022/10/29 04:32:41;;;;;;;7.05;3.47;;;;;;;;;;5050683;28;20531;-83
2022/10/29 04:35:09;;;;;;;12.32;4.03;;;;;;;;;;5057384;28;20033;-83
2022/10/29 04:37:34;;;;;;;10.93;4.10;;;;;;;;;;5056133;28;21574;-84
2022/10/29 04:40:00;;;;;;;11.00;4.07;;;;;;;;;;5046474;28;20490;-84
2022/10/29 04:42:25;;;;;;;8.75;4.07;;;;;;;;;;5076630;28;20517;-84
2022/10/29 04:44:50;;;;;;;9.93;4.20;;;;;;;;;;5040643;28;20059;-83
2022/10/29 04:47:16;;;;;;;7.43;3.40;;;;;;;;;;5040839;28;20032;-84
2022/10/29 04:49:41;;;;;;;8.77;4.13;;;;;;;;;;5044355;28;20517;-83
2022/10/29 04:52:06;;;;;;;11.05;4.82;;;;;;;;;;5049560;28;20033;-83
2022/10/29 04:54:32;;;;;;;7.78;4.10;;;;;;;;;;5044177;28;20051;-84
2022/10/29 04:56:57;;;;;;;7.38;3.53;;;;;;;;;;5076646;28;20036;-84
2022/10/29 04:59:22;;;;;;;8.02;3.83;;;;;;;;;;5092106;28;20067;-83
2022/10/29 05:01:48;;;;;;;9.48;4.22;;;;;;;;;;5056493;28;20052;-84
2022/10/29 05:04:13;;;;;;;9.52;3.83;;;;;;;;;;5056517;28;20028;-85
2022/10/29 05:06:38;;;;;;;8.18;3.42;;;;;;;;;;5072129;28;21092;-84
2022/10/29 05:09:04;;;;;;;9.32;4.25;;;;;;;;;;5063042;28;20411;-83
2022/10/29 05:11:29;;;;;;;8.38;3.88;;;;;;;;;;5046421;28;20044;-84
2022/10/29 05:13:54;;;;;;;6.95;3.88;;;;;;;;;;5042957;28;20040;-84
2022/10/29 05:16:20;;;;;;;9.05;4.65;;;;;;;;;;5078864;28;20066;-84
2022/10/29 05:18:45;;;;;;;7.32;3.35;;;;;;;;;;5040004;28;20040;-84
2022/10/29 05:21:11;;;;;;;10.57;4.20;;;;;;;;;;5045630;28;20044;-84
2022/10/29 05:23:36;;;;;;;12.10;4.78;;;;;;;;;;5039873;28;20071;-84
2022/10/29 05:26:02;;;;;;;9.80;4.10;;;;;;;;;;5053283;28;20117;-84
2022/10/29 05:28:27;;;;;;;10.65;4.30;;;;;;;;;;5071197;28;20486;-84
2022/10/29 05:30:53;;;;;;;8.30;3.75;;;;;;;;;;5040031;28;20043;-83
2022/10/29 05:33:23;;;;;;;9.43;4.00;;;;;;;;;;5062566;28;20045;-83
2022/10/29 05:35:51;;;;;;;11.60;4.20;;;;;;;;;;5057771;28;20383;-84
2022/10/29 05:38:16;;;;;;;9.32;4.65;;;;;;;;;;5051208;28;20170;-83
2022/10/29 05:40:43;;;;;;;10.80;4.00;;;;;;;;;;5040761;28;20147;-84
2022/10/29 05:43:13;;;;;;;9.18;4.20;;;;;;;;;;5038109;28;20450;-84
2022/10/29 05:45:38;;;;;;;9.52;4.50;;;;;;;;;;5077645;28;20045;-84
2022/10/29 05:48:04;;;;;;;11.20;4.47;;;;;;;;;;5039092;28;20380;-84
2022/10/29 05:50:30;;;;;;;10.15;4.63;;;;;;;;;;5042750;28;20061;-84
2022/10/29 05:52:57;;;;;;;11.82;4.60;;;;;;;;;;5067298;28;20040;-84
2022/10/29 05:55:22;;;;;;;11.43;4.67;;;;;;;;;;5044463;28;20048;-84
2022/10/29 05:57:47;;;;;;;9.73;4.50;;;;;;;;;;5050907;28;20492;-83
2022/10/29 06:00:15;;;;;;;8.50;4.20;;;;;;;;;;5043765;28;20461;-83
2022/10/29 06:02:44;;;;;;;9.02;4.28;;;;;;;;;;5037316;28;20094;-83
2022/10/29 06:05:09;;;;;;;9.60;4.50;;;;;;;;;;5071739;28;20036;-84
2022/10/29 06:07:35;;;;;;;10.05;4.10;;;;;;;;;;5036837;28;20649;-84
2022/10/29 06:10:00;;;;;;;9.30;4.60;;;;;;;;;;5053018;28;20128;-83
2022/10/29 06:12:25;;;;;;;9.20;4.40;;;;;;;;;;5054348;28;20468;-84
2022/10/29 06:14:51;;;;;;;10.88;4.80;;;;;;;;;;5051961;28;20522;-84
2022/10/29 06:17:16;;;;;;;9.80;4.80;;;;;;;;;;5043043;28;20040;-84
2022/10/29 06:19:41;;;;;;;10.45;4.80;;;;;;;;;;5052523;28;20101;-84
2022/10/29 06:22:07;;;;;;;9.68;4.88;;;;;;;;;;5035888;28;20076;-84
2022/10/29 06:24:32;;;;;;;9.48;4.53;;;;;;;;;;5053252;28;20033;-84
2022/10/29 06:26:57;;;;;;;9.15;4.32;;;;;;;;;;5038540;28;20116;-84
2022/10/29 06:29:23;;;;;;;11.32;5.22;;;;;;;;;;5050306;28;20198;-83
2022/10/29 06:31:48;;;;;;;10.85;4.65;;;;;;;;;;5036346;28;20044;-83
2022/10/29 06:34:13;;;;;;;8.35;5.22;;;;;;;;;;5045254;28;20072;-84
2022/10/29 06:36:39;;;;;;;9.88;4.63;;;;;;;;;;5032651;28;20107;-84
2022/10/29 06:39:04;;;;;;;10.55;4.88;;;;;;;;;;5071174;28;20448;-84
2022/10/29 06:41:29;;;;;;;9.25;4.53;;;;;;;;;;5039950;28;20491;-83
2022/10/29 06:43:55;;;;;;;8.98;4.90;;;;;;;;;;5041125;28;20115;-84
2022/10/29 06:46:20;;;;;;;8.20;4.47;;;;;;;;;;5040007;28;20039;-84
2022/10/29 06:48:46;;;;;;;9.93;4.25;;;;;;;;;;5044484;28;20033;-84
2022/10/29 06:51:11;;;;;;;10.60;4.40;;;;;;;;;;5055672;28;20041;-84
2022/10/29 06:53:36;;;;;;;7.22;4.20;;;;;;;;;;5053770;28;20151;-84
2022/10/29 06:56:02;;;;;;;9.85;4.43;;;;;;;;;;5051703;28;20032;-84
2022/10/29 06:58:27;;;;;;;10.05;4.57;;;;;;;;;;5045389;28;20044;-84
2022/10/29 07:00:52;;;;;;;10.30;4.55;;;;;;;;;;5052107;28;20036;-84
2022/10/29 07:03:19;;;;;;;12.35;4.72;;;;;;;;;;5051332;28;20045;-84
2022/10/29 07:05:45;;;;;;;11.20;4.50;;;;;;;;;;5070827;28;20025;-84
2022/10/29 07:08:11;;;;;;;8.35;4.65;;;;;;;;;;5086600;28;20060;-84
2022/10/29 07:10:37;;;;;;;10.65;4.80;;;;;;;;;;5084111;28;20778;-84
2022/10/29 07:13:02;;;;;;;8.73;4.50;;;;;;;;;;5044013;28;20037;-85
2022/10/29 07:15:28;;;;;;;10.65;4.45;;;;;;;;;;5044723;28;20071;-85
2022/10/29 07:17:55;;;;;;;10.20;4.60;;;;;;;;;;5067533;28;20075;-85
2022/10/29 07:20:21;;;;;;;9.77;4.50;;;;;;;;;;5051029;28;20515;-85
2022/10/29 07:22:46;;;;;;;10.45;4.22;;;;;;;;;;5040514;28;20048;-84
2022/10/29 07:25:12;;;;;;;8.57;4.13;;;;;;;;;;5044233;28;20037;-83
2022/10/29 07:27:37;;;;;;;8.57;3.90;;;;;;;;;;5044440;28;20040;-84
2022/10/29 07:30:02;;;;;;;10.02;4.50;;;;;;;;;;5090828;28;20039;-84
2022/10/29 07:32:28;;;;;;;13.70;4.20;;;;;;;;;;5039861;28;20044;-84
2022/10/29 07:34:53;;;;;;;6.70;4.03;;;;;;;;;;5040998;28;20032;-85
2022/10/29 07:37:18;;;;;;;10.77;4.05;;;;;;;;;;5053991;28;20110;-85
2022/10/29 07:39:44;;;;;;;10.27;4.43;;;;;;;;;;5042704;28;20033;-86
2022/10/29 07:42:12;;;;;;;10.25;4.13;;;;;;;;;;5056449;28;20029;-86
2022/10/29 07:44:37;;;;;;;8.73;4.20;;;;;;;;;;5040332;28;20083;-86
2022/10/29 07:47:03;;;;;;;7.45;3.83;;;;;;;;;;5041270;28;20029;-85
2022/10/29 07:49:28;;;;;;;9.20;4.07;;;;;;;;;;5045640;28;20044;-86
2022/10/29 07:51:56;;;;;;;8.48;4.35;;;;;;;;;;5056143;28;20036;-86
2022/10/29 07:54:21;;;;;;;8.88;3.95;;;;;;;;;;5075044;28;20128;-86
2022/10/29 07:56:47;;;;;;;12.02;4.50;;;;;;;;;;5040495;28;20123;-86
2022/10/29 07:59:13;;;;;;;7.70;3.78;;;;;;;;;;5040500;28;20045;-87
2022/10/29 08:01:39;;;;;;;11.67;3.43;;;;;;;;;;5048062;28;20025;-87
2022/10/29 08:04:04;;;;;;;7.05;3.53;;;;;;;;;;5054299;28;20109;-87
2022/10/29 08:06:30;;;;;;;7.82;3.50;;;;;;;;;;5040629;28;20060;-86
2022/10/29 08:08:56;;;;;;;7.15;2.85;;;;;;;;;;5055305;28;20469;-86
2022/10/29 08:11:21;;;;;;;7.82;3.50;;;;;;;;;;5055884;28;20071;-86
2022/10/29 08:13:47;;;;;;;8.00;3.28;;;;;;;;;;5045145;28;20060;-87
2022/10/29 08:16:13;;;;;;;7.45;3.50;;;;;;;;;;5048112;28;20028;-86
2022/10/29 08:18:38;;;;;;;9.13;3.22;;;;;;;;;;5040869;28;20036;-86
2022/10/29 08:21:04;;;;;;;8.25;3.53;;;;;;;;;;5041420;28;20492;-87
2022/10/29 08:23:29;;;;;;;7.80;3.20;;;;;;;;;;5056109;28;20044;-86
2022/10/29 08:25:57;;;;;;;8.50;3.53;;;;;;;;;;5046727;28;20128;-86
2022/10/29 08:28:24;;;;;;;9.05;3.45;;;;;;;;;;5073743;28;20326;-87
2022/10/29 08:30:50;;;;;;;;;;;;;;;;;;5040997;28;20399;-87
2022/10/29 08:33:15;;;;;;;8.23;3.00;;;;;;;;;;5055307;28;20007;-84
2022/10/29 08:35:41;;;;;;;8.27;3.10;;;;;;;;;;5042587;28;20037;-86
2022/10/29 08:38:06;;;;;;;9.43;2.97;;;;;;;;;;5042074;28;20033;-86
2022/10/29 08:40:40;;;;;;;8.60;3.22;;;;;;;;;;5045728;28;20040;-86
2022/10/29 08:43:21;;;;;;;6.13;3.05;;;;;;;;;;5063236;28;20503;-86
2022/10/29 08:45:51;;;;;;;7.57;3.15;;;;;;;;;;5053416;28;20364;-85
2022/10/29 08:49:03;;;;;;;8.45;3.35;;;;;;;;;;5048337;28;20042;-87
2022/10/29 08:51:40;;;;;;;8.27;3.10;;;;;;;;;;5053761;28;20048;-86
2022/10/29 08:54:11;;;;;;;6.45;2.63;;;;;;;;;;5043261;28;20503;-86
2022/10/29 08:56:38;;;;;;;8.45;3.08;;;;;;;;;;5057609;28;20036;-85
2022/10/29 08:59:09;;;;;;;6.57;3.20;;;;;;;;;;5086084;28;20029;-85
2022/10/29 09:01:35;;;;;;;8.38;3.20;;;;;;;;;;5084397;28;20048;-86
2022/10/29 09:04:01;;;;;;;7.07;3.22;;;;;;;;;;5088714;28;20491;-85
2022/10/29 09:06:49;;;;;;;8.85;2.85;;;;;;;;;;5072663;28;20037;-85
2022/10/29 09:09:37;;;;;;;8.38;3.10;;;;;;;;;;5070637;28;20076;-84
2022/10/29 09:12:02;;;;;;;8.75;2.90;;;;;;;;;;5068603;28;20087;-84
2022/10/29 09:14:55;;;;;;;5.77;2.60;;;;;;;;;;5056217;28;20598;-84
2022/10/29 09:17:39;;;;;;;7.03;2.42;;;;;;;;;;5055703;28;20267;-85
2022/10/29 09:20:39;;;;;;;9.75;3.30;;;;;;;;;;5085327;28;20499;-86
2022/10/29 09:23:23;;;;;;;9.75;3.30;;;;;;;;;;5056568;28;20039;-85
2022/10/29 09:25:54;;;;;;;6.97;3.03;;;;;;;;;;5053827;28;20041;-85
2022/10/29 09:28:41;;;;;;;7.65;2.88;;;;;;;;;;5055235;28;20041;-85
2022/10/29 09:31:15;;;;;;;8.10;2.78;;;;;;;;;;5054273;28;20041;-85
2022/10/29 09:33:42;;;;;;;8.88;3.17;;;;;;;;;;5056780;28;20412;-85
2022/10/29 09:36:13;;;;;;;7.60;2.75;;;;;;;;;;5041732;28;20072;-85
2022/10/29 09:38:46;;;;;;;11.73;3.10;;;;;;;;;;5048953;28;20028;-86
2022/10/29 09:41:11;;;;;;;7.15;2.70;;;;;;;;;;5055129;28;20083;-86
2022/10/29 09:43:41;;;;;;;8.27;2.67;;;;;;;;;;5041230;28;20059;-85
2022/10/29 09:46:09;;;;;;;8.00;2.95;;;;;;;;;;5055140;28;20033;-86
2022/10/29 09:48:39;;;;;;;6.18;2.60;;;;;;;;;;5053903;28;20039;-86
2022/10/29 09:51:28;;;;;;;6.97;3.33;;;;;;;;;;5068797;28;20404;-86
2022/10/29 09:53:57;;;;;;;11.18;3.10;;;;;;;;;;5037860;28;20492;-86
2022/10/29 09:56:22;;;;;;;5.95;2.10;;;;;;;;;;5059518;28;20147;-86
2022/10/29 09:58:52;;;;;;;7.35;2.17;;;;;;;;;;5036387;28;20048;-86
2022/10/29 10:01:17;;;;;;;7.82;2.42;;;;;;;;;;5027314;28;20119;-86
2022/10/29 10:03:46;;;;;;;8.00;2.83;;;;;;;;;;5044688;28;20427;-85
2022/10/29 10:06:14;;;;;;;6.75;2.47;;;;;;;;;;5051663;28;20132;-86
2022/10/29 10:08:59;;;;;;;7.90;2.78;;;;;;;;;;5051100;28;20500;-86
2022/10/29 10:11:28;;;;;;;5.38;2.38;;;;;;;;;;5050620;28;20080;-85
2022/10/29 10:13:58;;;;;;;6.72;2.47;;;;;;;;;;5051853;28;20757;-86
2022/10/29 10:16:27;;;;;;;7.30;2.47;;;;;;;;;;5052622;28;20040;-85
2022/10/29 10:18:52;;;;;;;8.07;2.60;;;;;;;;;;5034815;28;21001;-86
2022/10/29 10:21:29;;;;;;;7.47;2.47;;;;;;;;;;5042619;28;20041;-87
2022/10/29 10:23:58;;;;;;;7.82;2.70;;;;;;;;;;5070607;28;20059;-86
2022/10/29 10:26:28;;;;;;;9.70;2.47;;;;;;;;;;5029509;28;20033;-86
2022/10/29 10:29:14;;;;;;;7.57;2.97;;;;;;;;;;5084538;28;20037;-87
2022/10/29 10:31:44;;;;;;;6.93;2.72;;;;;;;;;;5042822;28;20053;-86
2022/10/29 10:34:17;;;;;;;7.80;2.80;;;;;;;;;;5036271;28;20031;-86
2022/10/29 10:36:47;;;;;;;6.88;2.42;;;;;;;;;;5084519;28;20121;-85
2022/10/29 10:39:25;;;;;;;5.75;2.60;;;;;;;;;;5041856;28;20652;-85
2022/10/29 10:41:51;;;;;;;8.25;2.80;;;;;;;;;;5037972;28;20025;-86
2022/10/29 10:44:18;;;;;;;8.85;2.47;;;;;;;;;;5056724;28;20035;-85
2022/10/29 10:46:44;;;;;;;7.32;2.45;;;;;;;;;;5055709;28;20487;-86
2022/10/29 10:49:15;;;;;;;8.10;2.42;;;;;;;;;;5043912;28;20090;-86
2022/10/29 10:52:02;;;;;;;7.90;2.67;;;;;;;;;;5052774;28;20107;-85
2022/10/29 10:54:40;;;;;;;8.85;3.20;;;;;;;;;;5038940;28;20449;-85
2022/10/29 10:57:12;;;;;;;6.18;2.88;;;;;;;;;;5044980;28;20041;-84
2022/10/29 11:00:13;;;;;;;7.82;2.90;;;;;;;;;;5052762;28;20044;-85
2022/10/29 11:02:57;;;;;;;6.70;2.80;;;;;;;;;;5055104;28;20056;-85
2022/10/29 11:05:58;;;;;;;7.25;2.83;;;;;;;;;;5059762;28;20032;-85
2022/10/29 11:08:45;;;;;;;8.25;2.70;;;;;;;;;;5061807;28;20048;-85
2022/10/29 11:11:28;;;;;;;5.63;2.25;;;;;;;;;;5051653;28;20044;-84
2022/10/29 11:13:58;;;;;;;9.05;3.03;;;;;;;;;;5079597;28;20088;-86
2022/10/29 11:16:30;;;;;;;9.65;2.33;;;;;;;;;;5046252;28;20787;-85
2022/10/29 11:19:00;;;;;;;5.40;1.88;;;;;;;;;;5052807;28;20029;-86
2022/10/29 11:21:38;;;;;;;6.60;2.13;;;;;;;;;;5084065;28;20456;-86
2022/10/29 11:24:37;;;;;;;5.03;2.20;;;;;;;;;;5062366;28;20424;-85
2022/10/29 11:27:26;;;;;;;7.47;2.55;;;;;;;;;;5076548;28;20801;-85
2022/10/29 11:30:01;;;;;;;9.88;2.78;;;;;;;;;;5094610;28;20052;-85
2022/10/29 11:32:32;;;;;;;8.23;4.18;;;;;;;;;;5067499;28;20040;-85
2022/10/29 11:35:13;;;;;;;6.22;2.90;;;;;;;;;;5078771;28;20039;-87
2022/10/29 11:38:02;;;;;;;6.30;2.55;;;;;;;;;;5067767;28;20860;-86
2022/10/29 11:40:57;;;;;;;6.68;3.03;;;;;;;;;;5074697;28;20063;-86
2022/10/29 11:43:23;;;;;;;7.85;3.00;;;;;;;;;;5093334;28;20040;-86
2022/10/29 11:46:04;;;;;;;8.27;3.20;;;;;;;;;;5074062;28;20052;-88
2022/10/29 11:48:43;;;;;;;6.93;2.72;;;;;;;;;;5052731;28;20043;-87
2022/10/29 11:51:36;;;;;;;7.78;2.90;;;;;;;;;;5051126;28;20035;-86
2022/10/29 11:54:17;;;;;;;6.57;3.10;;;;;;;;;;5092851;28;20041;-86
2022/10/29 11:57:10;;;;;;;7.10;3.00;;;;;;;;;;5074065;28;20044;-86
2022/10/29 12:00:06;;;;;;;7.53;3.00;;;;;;;;;;5042085;28;20036;-87
2022/10/29 12:02:38;;;;;;;10.20;3.35;;;;;;;;;;5076632;28;20468;-86
2022/10/29 12:05:24;;;;;;;5.95;2.90;;;;;;;;;;5074693;28;20483;-86
2022/10/29 12:08:02;;;;;;;6.63;2.83;;;;;;;;;;5076498;28;20131;-86
2022/10/29 12:10:49;;;;;;;6.43;3.15;;;;;;;;;;5073880;28;20051;-86
2022/10/29 12:13:31;;;;;;;8.95;2.95;;;;;;;;;;5076283;28;20056;-87
2022/10/29 12:16:05;;;;;;;6.90;3.13;;;;;;;;;;5072877;28;20369;-87
2022/10/29 12:18:46;;;;;;;7.55;3.10;;;;;;;;;;5068277;28;20402;-86
2022/10/29 12:21:30;;;;;;;5.78;2.88;;;;;;;;;;5062477;28;20036;-87
2022/10/29 12:24:14;;;;;;;7.78;3.20;;;;;;;;;;5090359;28;20077;-86
2022/10/29 12:26:48;;;;;;;6.97;3.38;;;;;;;;;;5074983;28;20111;-86
2022/10/29 12:29:32;;;;;;;6.88;3.03;;;;;;;;;;5074195;28;20036;-85
2022/10/29 12:32:09;;;;;;;5.00;2.72;;;;;;;;;;5052524;28;20036;-87
2022/10/29 12:35:27;;;;;;;7.75;3.50;;;;;;;;;;5075122;28;20094;-86
2022/10/29 12:38:30;;;;;;;8.82;3.15;;;;;;;;;;5032842;28;20416;-87
2022/10/29 12:41:45;;;;;;;8.48;3.25;;;;;;;;;;5052679;28;20158;-87
2022/10/29 12:44:50;;;;;;;9.52;3.40;;;;;;;;;;5092846;28;20041;-87
2022/10/29 12:47:25;;;;;;;8.10;3.25;;;;;;;;;;5091495;28;20532;-88
2022/10/29 12:50:03;;;;;;;7.00;3.40;;;;;;;;;;5038629;28;20032;-86
2022/10/29 12:52:37;;;;;;;8.45;3.15;;;;;;;;;;5078913;28;20044;-85
2022/10/29 12:55:04;;;;;;;6.70;3.05;;;;;;;;;;5087800;28;20085;-86
2022/10/29 12:57:33;;;;;;;6.15;2.97;;;;;;;;;;5041039;28;20472;-84
2022/10/29 13:00:51;;;;;;;8.07;3.42;;;;;;;;;;5090633;28;20486;-85
2022/10/29 13:03:53;;;;;;;8.07;3.40;;;;;;;;;;5045579;28;20093;-85
2022/10/29 13:06:57;;;;;;;5.93;2.67;;;;;;;;;;5075832;28;20111;-85
2022/10/29 13:09:23;;;;;;;6.32;2.80;;;;;;;;;;5038379;28;20569;-85
2022/10/29 13:11:50;;;;;;;7.93;3.47;;;;;;;;;;5052212;28;20136;-86
2022/10/29 13:14:42;;;;;;;8.32;3.13;;;;;;;;;;5072406;28;20047;-85
2022/10/29 13:17:26;;;;;;;8.43;3.17;;;;;;;;;;5063943;28;20402;-86
2022/10/29 13:20:16;;;;;;;7.32;3.30;;;;;;;;;;5055273;28;20064;-86
2022/10/29 13:23:26;;;;;;;6.75;3.40;;;;;;;;;;5055256;28;20040;-86
2022/10/29 13:25:55;;;;;;;7.13;3.45;;;;;;;;;;5043670;28;20039;-87
2022/10/29 13:28:20;;;;;;;6.57;3.58;;;;;;;;;;5054013;28;20047;-86
2022/10/29 13:30:47;;;;;;;8.80;3.60;;;;;;;;;;5056144;28;20493;-84
2022/10/29 13:33:19;;;;;;;6.80;3.05;;;;;;;;;;5039115;28;20365;-85
2022/10/29 13:36:03;;;;;;;6.75;2.97;;;;;;;;;;5054051;28;20037;-84
2022/10/29 13:38:52;;;;;;;5.55;2.53;;;;;;;;;;5037525;28;20124;-84
2022/10/29 13:41:22;;;;;;;7.38;3.22;;;;;;;;;;5054346;28;20037;-84
2022/10/29 13:44:12;;;;;;;6.97;2.95;;;;;;;;;;5051097;28;20032;-84
2022/10/29 13:46:59;;;;;;;9.55;3.60;;;;;;;;;;5085534;28;20037;-85
2022/10/29 13:49:29;;;;;;;7.43;3.40;;;;;;;;;;5064371;28;20107;-85
2022/10/29 13:51:56;;;;;;;7.60;3.40;;;;;;;;;;5043146;28;20033;-85
2022/10/29 13:54:25;;;;;;;7.35;3.65;;;;;;;;;;5032786;28;20421;-84
2022/10/29 13:57:04;;;;;;;8.63;4.13;;;;;;;;;;5037959;28;20112;-84
2022/10/29 13:59:39;;;;;;;7.78;3.42;;;;;;;;;;5066142;28;20041;-84
2022/10/29 14:02:25;;;;;;;8.73;4.30;;;;;;;;;;5083897;28;20044;-84
2022/10/29 14:04:55;;;;;;;8.88;3.63;;;;;;;;;;5049239;28;20037;-85
2022/10/29 14:07:25;;;;;;;8.00;3.65;;;;;;;;;;5052813;28;20491;-84
2022/10/29 14:09:54;;;;;;;8.52;4.00;;;;;;;;;;5061261;28;20037;-84
2022/10/29 14:12:23;;;;;;;7.30;3.42;;;;;;;;;;5054920;28;20043;-84
2022/10/29 14:15:00;;;;;;;9.23;3.72;;;;;;;;;;5040491;28;20460;-85
2022/10/29 14:17:26;;;;;;;6.15;3.13;;;;;;;;;;5073693;28;20031;-86
2022/10/29 14:19:51;;;;;;;9.82;3.78;;;;;;;;;;5047686;28;20132;-85
2022/10/29 14:22:22;;;;;;;7.20;3.97;;;;;;;;;;5041363;28;20040;-84
2022/10/29 14:24:48;;;;;;;10.10;4.25;;;;;;;;;;5057332;28;20052;-85
2022/10/29 14:27:16;;;;;;;9.15;3.92;;;;;;;;;;5053708;28;20039;-84
2022/10/29 14:29:41;;;;;;;9.30;4.28;;;;;;;;;;5040117;28;20055;-84
2022/10/29 14:32:07;;;;;;;7.43;3.92;;;;;;;;;;5038203;28;20507;-85
2022/10/29 14:34:32;;;;;;;8.82;3.90;;;;;;;;;;5057057;28;20036;-85
2022/10/29 14:37:02;;;;;;;8.48;4.25;;;;;;;;;;5039306;28;20040;-85
2022/10/29 14:39:29;;;;;;;8.90;4.00;;;;;;;;;;5053039;28;20028;-85
2022/10/29 14:41:54;;;;;;;9.77;4.77;;;;;;;;;;5087391;28;20032;-86
2022/10/29 14:44:25;;;;;;;8.45;3.67;;;;;;;;;;5039335;28;20367;-85
2022/10/29 14:47:04;;;;;;;8.73;3.92;;;;;;;;;;5037314;28;20139;-86
2022/10/29 14:49:31;;;;;;;8.82;4.43;;;;;;;;;;5037478;28;20074;-86
2022/10/29 14:52:05;;;;;;;7.47;3.80;;;;;;;;;;5040173;28;20043;-87
2022/10/29 14:54:33;;;;;;;13.02;5.28;;;;;;;;;;5069725;28;20491;-87
2022/10/29 14:57:03;;;;;;;8.32;3.70;;;;;;;;;;5072616;28;20052;-87
2022/10/29 14:59:32;;;;;;;11.13;4.22;;;;;;;;;;5046644;28;20044;-83
2022/10/29 15:01:59;;;;;;;7.20;4.00;;;;;;;;;;5049932;28;20484;-86
2022/10/29 15:04:28;;;;;;;8.70;3.95;;;;;;;;;;5071102;28;20072;-85
2022/10/29 15:07:13;;;;;;;11.07;4.22;;;;;;;;;;5053358;28;20078;-86